Data for 12/12/2013

Time Sea-Level Adjusted Pressure Absolute Pressure Temperature Relative Humidity Dew Point   
(mb) (inHg) (mb) (inHg) (C) (F) (%) (C) (F)
00:05 1025 30.27 854 25.22 -6.7 19.9 79 -9.8 14.4
00:10 1025 30.27 854 25.22 -6.9 19.7 79 -9.9 14.2
00:15 1025 30.27 854 25.22 -6.4 20.4 78 -9.7 14.6
00:20 1025 30.27 854 25.22 -6.3 20.6 76 -9.9 14.2
00:25 1025 30.27 854 25.22 -5.7 21.7 69 -10.5 13.1
00:30 1025 30.27 854 25.22 -5.3 22.4 73 -9.4 15
00:35 1025 30.27 854 25.22 -6.1 21.1 76 -9.6 14.7
00:40 1025 30.27 854 25.22 -6.4 20.6 78 -9.5 14.8
00:45 1025 30.27 854 25.22 -6.5 20.2 80 -9.5 14.9
00:50 1025 30.27 854 25.22 -6.4 20.5 79 -9.5 15
00:55 1025 30.27 854 25.22 -6.2 20.8 79 -9.4 15.1
01:00 1025 30.27 854 25.22 -6.3 20.7 76 -9.8 14.3
01:05 1025 30.27 854 25.22 -6.3 20.6 75 -10.1 13.8
01:10 1025 30.27 854 25.22 -6.3 20.7 73 -10.3 13.4
01:15 1025 30.27 854 25.22 -6.1 20.9 73 -10.2 13.7
01:20 1025 30.27 854 25.22 -6.3 20.6 73 -10.4 13.2
01:25 1024 30.24 854 25.22 -6.3 20.7 72 -10.5 13.2
01:30 1024 30.24 854 25.22 -6 21.2 70 -10.6 12.9
01:35 1024 30.24 854 25.22 -5.9 21.4 69 -10.6 12.8
01:40 1024 30.24 853 25.19 -5.7 21.7 70 -10.4 13.2
01:45 1024 30.24 853 25.19 -5.9 21.5 71 -10.3 13.5
01:50 1024 30.24 853 25.19 -6.1 21.1 71 -10.5 13.1
01:55 1024 30.24 853 25.19 -6 21.2 70 -10.6 13
02:00 1024 30.24 853 25.19 -6.1 21 71 -10.5 13.1
02:05 1024 30.24 853 25.19 -6.2 20.9 70 -10.7 12.7
02:10 1024 30.24 853 25.19 -6.1 21 70 -10.8 12.6
02:15 1024 30.24 853 25.19 -6 21.1 71 -10.5 13.2
02:20 1024 30.24 853 25.19 -6.3 20.8 73 -10.4 13.4
02:25 1024 30.24 853 25.19 -6.1 21.1 70 -10.7 12.8
02:30 1024 30.24 853 25.19 -5.9 21.3 67 -11 12.1
02:35 1024 30.24 853 25.19 -5.7 21.8 72 -10 14
02:40 1024 30.24 854 25.22 -6.3 20.7 71 -10.6 12.8
02:45 1024 30.24 854 25.22 -6.3 20.7 72 -10.5 13.2
02:50 1025 30.27 854 25.22 -6.5 20.3 72 -10.8 12.6
02:55 1025 30.27 854 25.22 -6.6 20.2 72 -10.8 12.5
03:00 1025 30.27 854 25.22 -6.6 20.1 71 -10.9 12.3
03:05 1025 30.27 854 25.22 -6.4 20.5 72 -10.7 12.7
03:10 1025 30.27 854 25.22 -6.7 20 74 -10.6 13
03:15 1025 30.27 854 25.22 -6.8 19.8 72 -10.9 12.3
03:20 1025 30.27 854 25.22 -6.9 19.6 73 -11 12.2
03:25 1024 30.24 854 25.22 -6.8 19.8 71 -11.3 11.7
03:30 1024 30.24 854 25.22 -6.2 20.8 65 -11.7 10.9
03:35 1024 30.24 854 25.22 -5.6 21.8 63 -11.7 11
03:40 1024 30.24 854 25.22 -5 23 61 -11.4 11.4
03:45 1024 30.24 853 25.19 -5 23 62 -11.2 11.8
03:50 1024 30.24 853 25.19 -5.6 22 65 -11.2 11.9
03:55 1024 30.24 853 25.19 -6.1 21 68 -11.1 12.1
04:00 1024 30.24 853 25.19 -6.8 19.8 71 -11.2 11.8
04:05 1024 30.24 853 25.19 -7 19.4 72 -11.2 11.8
04:10 1024 30.24 853 25.19 -6.7 19.9 69 -11.5 11.4
04:15 1024 30.24 853 25.19 -6.6 20.1 70 -11.2 11.9
04:20 1024 30.24 853 25.19 -6.9 19.7 72 -11.1 12
04:25 1024 30.24 853 25.19 -7 19.3 72 -11.3 11.7
04:30 1024 30.24 853 25.19 -7 19.5 70 -11.5 11.3
04:35 1024 30.24 853 25.19 -6.8 19.8 75 -10.5 13
04:40 1024 30.24 853 25.19 -6.6 20 73 -10.7 12.8
04:45 1024 30.24 853 25.19 -6.7 20 77 -10.1 13.9
04:50 1024 30.24 853 25.19 -6.9 19.6 77 -10.2 13.6
04:55 1024 30.24 853 25.19 -6.8 19.7 78 -10.1 13.8
05:00 1024 30.24 853 25.19 -6.8 19.8 76 -10.4 13.3
05:05 1024 30.24 853 25.19 -6.9 19.6 78 -10.1 13.8
05:10 1024 30.24 853 25.19 -6.5 20.4 78 -9.7 14.6
05:15 1024 30.24 853 25.19 -6 21.2 76 -9.6 14.8
05:20 1024 30.24 853 25.19 -5.9 21.4 76 -9.5 14.9
05:25 1024 30.24 853 25.19 -6 21.1 76 -9.6 14.8
05:30 1024 30.24 853 25.19 -6.2 20.8 76 -9.7 14.5
05:35 1024 30.24 853 25.19 -6.4 20.5 78 -9.7 14.6
05:40 1024 30.24 853 25.19 -6.5 20.3 77 -9.9 14.2
05:45 1024 30.24 853 25.19 -6.6 20.2 77 -10 14
05:50 1024 30.24 853 25.19 -6.3 20.6 74 -10.2 13.7
05:55 1023 30.21 853 25.19 -6 21.2 72 -10.2 13.7
06:00 1023 30.21 853 25.19 -5.9 21.5 72 -10.2 13.6
06:05 1023 30.21 853 25.19 -5.8 21.5 72 -10.1 13.9
06:10 1023 30.21 853 25.19 -5.8 21.6 72 -10.2 13.7
06:15 1023 30.21 853 25.19 -5.8 21.5 72 -10.2 13.7
06:20 1023 30.21 853 25.19 -5.9 21.4 71 -10.4 13.3
06:25 1024 30.24 853 25.19 -5.8 21.6 70 -10.4 13.4
06:30 1023 30.21 853 25.19 -5.8 21.6 71 -10.3 13.5
06:35 1023 30.21 853 25.19 -6.2 20.9 71 -10.6 13
06:40 1023 30.21 853 25.19 -6.1 21 71 -10.6 12.9
06:45 1023 30.21 853 25.19 -6 21.2 68 -10.9 12.3
06:50 1023 30.21 853 25.19 -5.5 22.1 66 -10.9 12.4
06:55 1023 30.21 853 25.19 -5.4 22.3 68 -10.5 13.2
07:00 1023 30.21 852 25.16 -5.9 21.4 70 -10.5 13
07:05 1023 30.21 852 25.16 -6.6 20.1 73 -10.7 12.8
07:10 1023 30.21 852 25.16 -7.5 18.5 78 -10.7 12.8
07:15 1023 30.21 852 25.16 -7.9 17.7 78 -11.1 12.1
07:20 1023 30.21 852 25.16 -7.4 18.6 77 -10.8 12.5
07:25 1023 30.21 852 25.16 -7.1 19.2 77 -10.5 13.2
07:30 1023 30.21 852 25.16 -7.1 19.1 78 -10.3 13.4
07:35 1023 30.21 852 25.16 -7.4 18.7 79 -10.5 13.1
07:40 1023 30.21 852 25.16 -7.5 18.6 79 -10.4 13.2
07:45 1023 30.21 852 25.16 -7.5 18.5 78 -10.6 12.8
07:50 1023 30.21 852 25.16 -7.3 18.9 79 -10.4 13.3
07:55 1023 30.21 852 25.16 -7.1 19.3 79 -10.1 13.9
08:00 1023 30.21 852 25.16 -6.9 19.6 79 -9.9 14.2
08:05 1023 30.21 852 25.16 -6.9 19.6 80 -9.8 14.4
08:10 1023 30.21 852 25.16 -6.8 19.7 80 -9.8 14.4
08:15 1023 30.21 852 25.16 -7 19.4 80 -9.9 14.2
08:20 1023 30.21 852 25.16 -7.2 19.1 80 -10 13.9
08:25 1023 30.21 852 25.16 -7.2 19.1 80 -10.1 13.9
08:30 1023 30.21 852 25.16 -7.2 19 79 -10.2 13.6
08:35 1023 30.21 852 25.16 -7.1 19.3 78 -10.3 13.5
08:40 1023 30.21 852 25.16 -6.8 19.7 76 -10.4 13.3
08:45 1023 30.21 852 25.16 -6.8 19.8 73 -10.8 12.5
08:50 1023 30.21 852 25.16 -6.5 20.3 73 -10.6 12.9
08:55 1023 30.21 852 25.16 -6.2 20.9 70 -10.7 12.7
09:00 1023 30.21 852 25.16 -5.9 21.4 73 -10 14.1
09:05 1023 30.21 852 25.16 -6 21.1 76 -9.6 14.6
09:10 1023 30.21 852 25.16 -6.3 20.7 76 -9.8 14.4
09:15 1023 30.21 852 25.16 -6.1 21 78 -9.3 15.3
09:20 1023 30.21 852 25.16 -6.6 20.1 82 -9.1 15.6
09:25 1023 30.21 852 25.16 -6.6 20.1 81 -9.3 15.2
09:30 1023 30.21 852 25.16 -6.7 19.9 81 -9.5 15
09:35 1023 30.21 852 25.16 -7.1 19.2 75 -10.7 12.7
09:40 1023 30.21 852 25.16 -6.7 19.9 77 -10.1 13.9
09:45 1023 30.21 852 25.16 -6 21.2 74 -10 14
09:50 1023 30.21 852 25.16 -5.8 21.5 74 -9.8 14.3
09:55 1023 30.21 852 25.16 -5.8 21.6 74 -9.7 14.5
10:00 1023 30.21 852 25.16 -5.8 21.6 73 -9.8 14.3
10:05 1023 30.21 852 25.16 -5.7 21.8 72 -9.9 14.2
10:10 1023 30.21 852 25.16 -5.5 22.1 71 -9.9 14.2
10:15 1023 30.21 852 25.16 -5.1 22.8 70 -9.8 14.4
10:20 1023 30.21 852 25.16 -5 23.1 70 -9.7 14.6
10:25 1023 30.21 852 25.16 -4.7 23.5 69 -9.6 14.7
10:30 1023 30.21 852 25.16 -4.6 23.7 68 -9.7 14.6
10:35 1023 30.21 852 25.16 -4.1 24.7 66 -9.4 15
10:40 1023 30.21 852 25.16 -4.2 24.4 67 -9.4 15.1
10:45 1023 30.21 852 25.16 -3.6 25.5 64 -9.4 15.1
10:50 1023 30.21 852 25.16 -3.3 26 65 -9.1 15.6
10:55 1023 30.21 852 25.16 -3.7 25.4 64 -9.4 15
11:00 1023 30.21 852 25.16 -3.3 26.1 64 -9.1 15.6
11:05 1023 30.21 852 25.16 -3.3 26.1 64 -9.2 15.4
11:10 1023 30.21 852 25.16 -2.8 26.9 62 -9.2 15.4
11:15 1023 30.21 852 25.16 -3.2 26.3 64 -9.1 15.5
11:20 1023 30.21 852 25.16 -2.7 27.1 60 -9.5 15
11:25 1023 30.21 852 25.16 -2.3 27.8 60 -9 15.9
11:30 1023 30.21 852 25.16 -2.8 27 64 -8.6 16.6
11:35 1023 30.21 852 25.16 -2.7 27.2 63 -8.8 16.1
11:40 1023 30.21 852 25.16 -1.9 28.6 60 -8.5 16.6
11:45 1023 30.21 852 25.16 -1.6 29.2 60 -8.3 17.1
11:50 1023 30.21 852 25.16 -1.6 29.1 61 -8.3 17.1
11:55 1023 30.21 852 25.16 -1.8 28.7 60 -8.6 16.6
12:00 1023 30.21 852 25.16 -1.9 28.7 59 -8.9 16
12:05 1022 30.18 852 25.16 -1.5 29.3 57 -8.9 15.9
12:10 1022 30.18 852 25.16 -1.2 29.9 57 -8.6 16.5
12:15 1022 30.18 852 25.16 -0.9 30.4 55 -8.7 16.3
12:20 1022 30.18 852 25.16 -0.7 30.7 55 -8.6 16.4
12:25 1022 30.18 851 25.13 -0.9 30.4 57 -8.3 17
12:30 1022 30.18 851 25.13 -0.5 31.2 54 -8.7 16.4
12:35 1022 30.18 851 25.13 0.4 32.8 51 -8.6 16.5
12:40 1022 30.18 851 25.13 0.9 33.7 49 -8.6 16.4
12:45 1022 30.18 851 25.13 0.5 32.9 52 -8.2 17.2
12:50 1022 30.18 851 25.13 -0.9 30.4 55 -8.7 16.3
12:55 1022 30.18 851 25.13 -0.2 31.6 53 -8.8 16.2
13:00 1022 30.18 851 25.13 0.2 32.4 51 -8.8 16.2
13:05 1022 30.18 851 25.13 -0.3 31.4 55 -8.3 17.1
13:10 1021 30.15 851 25.13 -0.9 30.4 56 -8.6 16.5
13:15 1021 30.15 851 25.13 -0.6 31 55 -8.6 16.5
13:20 1021 30.15 850 25.1 -0.4 31.2 55 -8.4 16.9
13:25 1021 30.15 850 25.1 -0.1 31.8 53 -8.6 16.4
13:30 1021 30.15 850 25.1 0.5 32.9 51 -8.5 16.6
13:35 1021 30.15 850 25.1 0.7 33.2 50 -8.5 16.7
13:40 1021 30.15 850 25.1 0.8 33.5 51 -8.1 17.4
13:45 1021 30.15 850 25.1 0.2 32.4 53 -8.2 17.2
13:50 1021 30.15 850 25.1 0.7 33.2 49 -8.8 16.1
13:55 1021 30.15 850 25.1 0.7 33.2 51 -8.5 16.7
14:00 1020 30.12 850 25.1 0.4 32.8 49 -9 15.8
14:05 1020 30.12 850 25.1 0.4 32.7 53 -8.2 17.3
14:10 1020 30.12 849 25.07 0.2 32.4 53 -8.3 17
14:15 1020 30.12 849 25.07 -0.1 31.9 54 -8.3 17
14:20 1020 30.12 849 25.07 -0.2 31.6 54 -8.5 16.7
14:25 1020 30.12 849 25.07 0.2 32.3 52 -8.6 16.6
14:30 1020 30.12 849 25.07 0.3 32.6 51 -8.6 16.5
14:35 1020 30.12 849 25.07 0.7 33.3 50 -8.6 16.6
14:40 1020 30.12 849 25.07 0.9 33.6 50 -8.4 16.8
14:45 1020 30.12 849 25.07 1 33.7 52 -7.9 17.8
14:50 1020 30.12 849 25.07 0.4 32.6 55 -7.7 18.2
14:55 1020 30.12 849 25.07 -0.4 31.3 54 -8.5 16.6
15:00 1020 30.12 849 25.07 -0.6 30.9 55 -8.7 16.3
15:05 1019 30.09 849 25.07 -0.6 30.9 54 -8.7 16.3
15:10 1019 30.09 848 25.04 -0.3 31.4 52 -9 15.7
15:15 1019 30.09 848 25.04 -0 32 51 -9 15.8
15:20 1019 30.09 848 25.04 0.6 33.2 51 -8.4 16.8
15:25 1019 30.09 848 25.04 0.4 32.7 52 -8.4 16.9
15:30 1019 30.09 848 25.04 0.6 33 53 -7.9 17.8
15:35 1019 30.09 848 25.04 1.1 33.9 52 -7.8 17.9
15:40 1019 30.09 848 25.04 1.3 34.4 49 -8.3 17.1
15:45 1019 30.09 848 25.04 1.3 34.3 52 -7.6 18.2
15:50 1019 30.09 848 25.04 1.2 34.2 51 -7.8 17.9
15:55 1019 30.09 848 25.04 1.4 34.5 50 -7.9 17.7
16:00 1019 30.09 848 25.04 0.8 33.5 53 -7.7 18.1
16:05 1019 30.09 848 25.04 -0.1 31.9 56 -7.7 18.1
16:10 1019 30.09 848 25.04 -0.8 30.6 57 -8.2 17.2
16:15 1019 30.09 848 25.04 -0.6 30.8 56 -8.3 17.1
16:20 1018 30.06 848 25.04 0.1 32.1 54 -8.2 17.3
16:25 1018 30.06 848 25.04 -0.6 31 56 -8.4 16.9
16:30 1018 30.06 848 25.04 -0.6 30.9 54 -8.8 16.2
16:35 1018 30.06 848 25.04 -0.5 31 53 -8.9 16
16:40 1018 30.06 848 25.04 -0.3 31.4 53 -8.7 16.3
16:45 1018 30.06 848 25.04 -0.1 31.8 53 -8.5 16.7
16:50 1018 30.06 848 25.04 0.1 32.1 53 -8.5 16.6
16:55 1018 30.06 847 25.01 -0.2 31.6 54 -8.4 16.8
17:00 1018 30.06 847 25.01 -0.4 31.3 54 -8.5 16.7
17:05 1018 30.06 847 25.01 -0.6 31 54 -8.7 16.3
17:10 1018 30.06 847 25.01 -0.4 31.4 53 -8.7 16.3
17:15 1018 30.06 847 25.01 -0.3 31.5 54 -8.6 16.6
17:20 1018 30.06 847 25.01 -0.4 31.3 54 -8.6 16.5
17:25 1018 30.06 847 25.01 -1 30.2 56 -8.8 16.2
17:30 1018 30.06 847 25.01 -1.5 29.2 59 -8.6 16.5
17:35 1018 30.06 847 25.01 -1.5 29.2 57 -8.9 16
17:40 1018 30.06 847 25.01 -1.6 29.1 60 -8.3 17
17:45 1018 30.06 847 25.01 -1.8 28.8 61 -8.4 16.9
17:50 1018 30.06 847 25.01 -1.9 28.7 62 -8.2 17.2
17:55 1018 30.06 847 25.01 -2 28.4 61 -8.5 16.7
18:00 1018 30.06 847 25.01 -2.7 27.2 64 -8.6 16.6
18:05 1018 30.06 847 25.01 -3.1 26.3 68 -8.3 17.1
18:10 1017 30.03 847 25.01 -3.5 25.6 72 -8 17.7
18:15 1017 30.03 847 25.01 -3.5 25.7 75 -7.3 18.9
18:20 1017 30.03 847 25.01 -3.5 25.6 78 -6.8 19.7
18:25 1017 30.03 847 25.01 -3.4 25.9 77 -6.8 19.7
18:30 1017 30.03 847 25.01 -3.2 26.2 70 -7.9 17.8
18:35 1017 30.03 846 24.98 -2.9 26.8 75 -6.8 19.8
18:40 1017 30.03 846 24.98 -3.2 26.2 73 -7.4 18.7
18:45 1017 30.03 846 24.98 -3.5 25.6 75 -7.4 18.7
18:50 1017 30.03 846 24.98 -3.4 25.8 75 -7.3 18.8
18:55 1017 30.03 846 24.98 -3.6 25.5 77 -7.1 19.2
19:00 1017 30.03 846 24.98 -3.7 25.3 76 -7.3 18.8
19:05 1017 30.03 846 24.98 -3.9 25 78 -7.1 19.1
19:10 1017 30.03 846 24.98 -4.1 24.6 79 -7.2 19.1
19:15 1017 30.03 846 24.98 -4 24.9 80 -6.8 19.7
19:20 1017 30.03 846 24.98 -3.6 25.4 79 -6.7 19.9
19:25 1017 30.03 846 24.98 -3.7 25.3 81 -6.5 20.3
19:30 1017 30.03 846 24.98 -3.7 25.3 79 -6.9 19.7
19:35 1017 30.03 846 24.98 -3.6 25.6 77 -7 19.3
19:40 1017 30.03 846 24.98 -3.1 26.5 76 -6.7 20
19:45 1017 30.03 846 24.98 -2.9 26.7 77 -6.4 20.4
19:50 1017 30.03 846 24.98 -3.1 26.4 77 -6.5 20.2
19:55 1017 30.03 846 24.98 -3.5 25.8 79 -6.6 20
20:00 1017 30.03 846 24.98 -3.7 25.4 78 -6.9 19.5
20:05 1017 30.03 846 24.98 -3.9 25 79 -7 19.5
20:10 1017 30.03 846 24.98 -3.9 25 80 -6.9 19.5
20:15 1017 30.03 846 24.98 -3.9 25.1 79 -7.1 19.3
20:20 1017 30.03 846 24.98 -4.2 24.5 81 -7 19.4
20:25 1017 30.03 846 24.98 -4.2 24.4 81 -7 19.5
20:30 1017 30.03 846 24.98 -4.1 24.6 79 -7.3 18.9
20:35 1017 30.03 846 24.98 -4.1 24.6 79 -7.3 18.9
20:40 1017 30.03 846 24.98 -3.9 25 79 -7.1 19.3
20:45 1017 30.03 846 24.98 -3.9 25 79 -7 19.4
20:50 1017 30.03 846 24.98 -3.6 25.5 78 -6.9 19.6
20:55 1017 30.03 846 24.98 -3.5 25.7 78 -6.9 19.7
21:00 1017 30.03 846 24.98 -3.7 25.3 78 -6.9 19.5
21:05 1017 30.03 846 24.98 -4 24.8 80 -7 19.4
21:10 1017 30.03 846 24.98 -4.2 24.5 80 -7.2 19
21:15 1017 30.03 846 24.98 -3.9 25 77 -7.3 18.9
21:20 1017 30.03 846 24.98 -3.6 25.5 77 -7 19.4
21:25 1017 30.03 846 24.98 -3.3 26 77 -6.8 19.7
21:30 1017 30.03 846 24.98 -3.2 26.2 76 -6.8 19.7
21:35 1017 30.03 846 24.98 -3.5 25.6 77 -7 19.5
21:40 1017 30.03 846 24.98 -3.8 25.2 79 -6.9 19.6
21:45 1017 30.03 846 24.98 -3.7 25.3 77 -7.2 19.1
21:50 1017 30.03 846 24.98 -3.9 25 78 -7.2 19.1
21:55 1017 30.03 846 24.98 -3.1 26.3 76 -6.8 19.8
22:00 1017 30.03 846 24.98 -2.7 27.2 73 -6.8 19.8
22:05 1017 30.03 846 24.98 -2.7 27.1 75 -6.5 20.2
22:10 1017 30.03 846 24.98 -2.6 27.3 75 -6.4 20.5
22:15 1017 30.03 846 24.98 -2.6 27.3 76 -6.2 20.8
22:20 1017 30.03 846 24.98 -2.7 27.2 77 -6.2 20.8
22:25 1017 30.03 846 24.98 -2.7 27.1 76 -6.5 20.4
22:30 1017 30.03 846 24.98 -3 26.5 78 -6.4 20.5
22:35 1017 30.03 846 24.98 -3.2 26.2 77 -6.7 19.9
22:40 1017 30.03 846 24.98 -3.3 26 77 -6.7 19.9
22:45 1017 30.03 846 24.98 -3.2 26.3 76 -6.9 19.6
22:50 1017 30.03 846 24.98 -3.7 25.4 80 -6.7 20
22:55 1017 30.03 846 24.98 -3.7 25.3 81 -6.5 20.3
23:00 1017 30.03 846 24.98 -3.7 25.3 78 -7.1 19.3
23:05 1017 30.03 846 24.98 -4.1 24.6 80 -7 19.4
23:10 1017 30.03 846 24.98 -3.9 24.9 82 -6.6 20.1
23:15 1017 30.03 846 24.98 -4.2 24.5 82 -6.8 19.8
23:20 1017 30.03 846 24.98 -4.1 24.7 81 -6.8 19.7
23:25 1017 30.03 846 24.98 -3.7 25.4 78 -6.9 19.5
23:30 1017 30.03 846 24.98 -3 26.7 74 -7 19.4
23:35 1017 30.03 846 24.98 -2.9 26.7 75 -6.7 19.9
23:40 1017 30.03 846 24.98 -2.8 26.9 75 -6.6 20.1
23:45 1017 30.03 846 24.98 -3.1 26.4 78 -6.5 20.4
23:50 1017 30.03 846 24.98 -3.6 25.6 79 -6.7 20
23:55 1017 30.03 846 24.98 -4.1 24.6 83 -6.6 20.1
24:00 1017 30.03 846 24.98 -4.3 24.2 84 -6.6 20